Time;durP1;ratioP1;P1;durP2;ratioP2;P2;SDS_P1;SDS_P2;PMS_P1;PMS_P2;Temp;Humidity;BMP_temperature;BMP_pressure;BME280_temperature;BME280_humidity;BME280_pressure;Samples;Min_cycle;Max_cycle;Signal;HPM_P1;HPM_P2
2022/09/28 00:01:13;;;;;;;11.00;8.63;;;8.40;99.90;;;;;;5029283;28;20043;-54
2022/09/28 00:03:39;;;;;;;11.02;8.48;;;8.40;99.90;;;;;;5081549;28;20048;-54
2022/09/28 00:06:07;;;;;;;12.15;9.48;;;8.40;99.90;;;;;;5076598;28;20096;-54
2022/09/28 00:08:35;;;;;;;11.43;8.90;;;8.40;99.90;;;;;;5081633;28;20043;-53
2022/09/28 00:11:02;;;;;;;12.10;9.25;;;8.40;99.90;;;;;;5048651;28;20052;-54
2022/09/28 00:13:28;;;;;;;12.18;10.00;;;8.40;99.90;;;;;;5047864;28;20036;-53
2022/09/28 00:16:06;;;;;;;14.25;9.98;;;8.30;99.90;;;;;;5079960;28;20063;-49
2022/09/28 00:18:32;;;;;;;13.20;9.80;;;8.40;99.90;;;;;;5051903;28;20387;-54
2022/09/28 00:21:04;;;;;;;10.57;9.48;;;8.40;99.90;;;;;;5080956;28;20048;-55
2022/09/28 00:23:31;;;;;;;11.43;9.48;;;8.40;99.90;;;;;;5050012;28;20634;-50
2022/09/28 00:26:02;;;;;;;15.05;10.00;;;8.40;99.90;;;;;;5050108;28;20054;-54
2022/09/28 00:28:30;;;;;;;13.90;11.07;;;8.40;99.90;;;;;;5076944;28;20043;-45
2022/09/28 00:30:57;;;;;;;13.15;10.27;;;8.40;99.90;;;;;;5040289;28;20070;-51
2022/09/28 00:33:24;;;;;;;12.60;10.57;;;8.40;99.90;;;;;;5062227;28;20040;-54
2022/09/28 00:35:57;;;;;;;11.43;10.23;;;8.40;99.90;;;;;;5080756;28;20141;-46
2022/09/28 00:38:28;;;;;;;15.25;11.10;;;8.40;99.90;;;;;;5071955;28;20040;-48
2022/09/28 00:40:54;;;;;;;12.88;10.40;;;8.40;99.90;;;;;;5082020;28;20055;-53
2022/09/28 00:43:22;;;;;;;13.45;11.38;;;8.40;99.90;;;;;;5060872;28;20124;-53
2022/09/28 00:45:57;;;;;;;12.45;11.18;;;8.40;99.90;;;;;;5066664;28;20051;-53
2022/09/28 00:48:28;;;;;;;15.15;11.90;;;8.40;99.90;;;;;;5080206;28;20056;-53
2022/09/28 00:50:55;;;;;;;13.25;11.48;;;8.40;99.90;;;;;;5045097;28;20075;-55
2022/09/28 00:53:25;;;;;;;16.48;12.55;;;8.40;99.90;;;;;;5067152;28;20050;-52
2022/09/28 00:55:56;;;;;;;15.60;12.63;;;8.40;99.90;;;;;;5083372;28;20040;-53
2022/09/28 00:58:32;;;;;;;17.73;13.45;;;8.40;99.90;;;;;;5062891;28;20043;-53
2022/09/28 01:00:59;;;;;;;15.18;13.40;;;8.40;99.90;;;;;;5075967;28;20051;-53
2022/09/28 01:03:26;;;;;;;15.70;13.63;;;8.50;99.90;;;;;;5068337;28;20662;-48
2022/09/28 01:05:56;;;;;;;18.85;14.05;;;8.50;99.90;;;;;;5056530;28;20651;-50
2022/09/28 01:08:26;;;;;;;17.63;15.35;;;8.50;99.90;;;;;;5083404;28;20043;-46
2022/09/28 01:10:52;;;;;;;21.73;15.82;;;8.50;99.90;;;;;;5063933;28;20501;-47
2022/09/28 01:13:20;;;;;;;17.52;13.90;;;8.50;99.90;;;;;;5080441;28;20047;-47
2022/09/28 01:16:25;;;;;;;16.42;14.35;;;8.50;99.90;;;;;;5064344;28;20086;-54
2022/09/28 01:19:17;;;;;;;14.90;13.38;;;8.50;99.90;;;;;;5057913;28;20861;-45
2022/09/28 01:22:19;;;;;;;16.58;13.82;;;8.50;99.90;;;;;;5048237;28;20047;-45
2022/09/28 01:24:47;;;;;;;18.63;14.90;;;8.50;99.90;;;;;;5026489;28;20051;-46
2022/09/28 01:27:16;;;;;;;15.48;13.68;;;8.50;99.90;;;;;;5064223;28;20048;-49
2022/09/28 01:30:06;;;;;;;15.38;13.25;;;8.50;99.90;;;;;;5064898;28;20156;-48
2022/09/28 01:33:09;;;;;;;18.98;12.90;;;8.50;99.90;;;;;;5044435;28;20605;-45
2022/09/28 01:36:08;;;;;;;15.20;13.02;;;8.50;99.90;;;;;;5036529;28;20040;-47
2022/09/28 01:39:04;;;;;;;16.38;13.32;;;8.40;99.90;;;;;;5065562;28;20118;-50
2022/09/28 01:41:35;;;;;;;16.65;13.23;;;8.40;99.90;;;;;;5070475;28;20537;-47
2022/09/28 01:44:07;;;;;;;18.50;13.48;;;8.30;99.90;;;;;;5045711;28;20188;-48
2022/09/28 01:46:40;;;;;;;17.77;13.33;;;8.30;99.90;;;;;;5063651;28;20133;-52
2022/09/28 01:49:18;;;;;;;15.23;13.68;;;8.30;99.90;;;;;;5031917;28;20298;-53
2022/09/28 01:52:12;;;;;;;21.73;15.95;;;8.20;99.90;;;;;;5083908;28;20052;-49
2022/09/28 01:54:47;;;;;;;15.90;13.02;;;8.10;99.90;;;;;;5016914;28;20044;-47
2022/09/28 01:57:21;;;;;;;17.70;13.85;;;8.10;99.90;;;;;;5041935;28;20055;-48
2022/09/28 02:00:05;;;;;;;14.48;12.60;;;8.00;99.90;;;;;;5057693;28;20124;-50
2022/09/28 02:02:55;;;;;;;19.50;14.80;;;8.00;99.90;;;;;;5056359;28;20061;-47
2022/09/28 02:05:35;;;;;;;19.63;14.40;;;7.90;99.90;;;;;;5063948;28;20127;-50
2022/09/28 02:08:08;;;;;;;21.33;16.00;;;7.90;99.90;;;;;;5089442;28;20040;-48
2022/09/28 02:10:46;;;;;;;18.92;15.68;;;7.90;99.90;;;;;;5062849;28;20051;-45
2022/09/28 02:13:28;;;;;;;19.38;17.13;;;8.00;99.90;;;;;;5046599;28;20050;-45
2022/09/28 02:16:01;;;;;;;;;;;8.00;99.90;;;;;;5045704;28;20044;-49
2022/09/28 02:18:28;;;;;;;20.63;15.60;;;8.00;99.90;;;;;;5078145;28;19927;-45
2022/09/28 02:21:11;;;;;;;23.88;17.20;;;8.10;99.90;;;;;;5044727;28;20052;-49
2022/09/28 02:23:40;;;;;;;21.00;17.75;;;8.00;99.90;;;;;;5060127;28;20047;-44
2022/09/28 02:26:12;;;;;;;24.15;17.92;;;8.10;99.90;;;;;;5056977;28;20051;-48
2022/09/28 02:28:39;;;;;;;23.33;18.70;;;8.10;99.90;;;;;;5024360;28;20742;-47
2022/09/28 02:31:06;;;;;;;25.52;17.38;;;8.20;99.90;;;;;;5040960;28;20048;-49
2022/09/28 02:33:36;;;;;;;27.35;19.65;;;8.20;99.90;;;;;;5036624;28;20041;-48
2022/09/28 02:36:03;;;;;;;30.15;20.13;;;8.30;99.90;;;;;;5044853;28;20047;-48
2022/09/28 02:38:36;;;;;;;26.33;18.27;;;8.30;99.90;;;;;;5060453;28;20044;-47
2022/09/28 02:41:08;;;;;;;24.85;18.83;;;8.30;99.90;;;;;;5043933;28;20056;-46
2022/09/28 02:43:44;;;;;;;20.75;17.17;;;8.30;99.90;;;;;;5059622;28;20116;-47
2022/09/28 02:46:17;;;;;;;23.73;18.02;;;8.30;99.90;;;;;;5064505;28;20148;-46
2022/09/28 02:49:24;;;;;;;20.38;17.65;;;8.30;99.90;;;;;;5061437;28;20135;-46
2022/09/28 02:52:29;;;;;;;25.58;18.83;;;8.30;99.90;;;;;;5059264;28;20048;-48
2022/09/28 02:55:32;;;;;;;23.27;18.40;;;8.30;99.90;;;;;;5043986;28;20052;-47
2022/09/28 02:58:17;;;;;;;27.05;19.23;;;8.30;99.90;;;;;;5057740;28;20106;-46
2022/09/28 03:01:07;;;;;;;25.48;18.67;;;8.30;99.90;;;;;;5060404;28;20236;-46
2022/09/28 03:03:54;;;;;;;23.13;18.77;;;8.30;99.90;;;;;;5058060;28;20052;-46
2022/09/28 03:06:34;;;;;;;24.67;20.65;;;8.30;99.90;;;;;;5079902;28;20305;-45
2022/09/28 03:09:12;;;;;;;28.77;22.20;;;8.30;99.90;;;;;;5049192;28;20051;-45
2022/09/28 03:11:47;;;;;;;29.48;22.52;;;8.30;99.90;;;;;;5061260;28;20409;-48
2022/09/28 03:14:14;;;;;;;31.77;24.50;;;8.30;99.90;;;;;;5079808;28;20048;-47
2022/09/28 03:16:53;;;;;;;38.15;25.00;;;8.30;99.90;;;;;;5075257;28;20040;-46
2022/09/28 03:19:25;;;;;;;30.90;24.95;;;8.30;99.90;;;;;;5078710;28;20054;-45
2022/09/28 03:21:51;;;;;;;;;;;8.20;99.90;;;;;;5073663;28;20828;-47
2022/09/28 03:24:17;;;;;;;46.45;26.08;;;8.20;99.90;;;;;;5084380;28;20014;-45
2022/09/28 03:26:44;;;;;;;34.50;25.33;;;8.10;99.90;;;;;;5042337;28;20152;-48
2022/09/28 03:29:11;;;;;;;46.00;28.70;;;8.10;99.90;;;;;;5033364;28;20090;-53
2022/09/28 03:31:38;;;;;;;58.15;28.00;;;8.00;99.90;;;;;;5064504;28;20479;-55
2022/09/28 03:34:04;;;;;;;88.65;30.92;;;8.00;99.90;;;;;;5057521;28;20574;-54
2022/09/28 03:36:31;;;;;;;78.95;31.48;;;8.00;99.90;;;;;;5034129;28;20067;-54
2022/09/28 03:38:58;;;;;;;108.90;34.40;;;8.00;99.90;;;;;;5047804;28;20052;-53
2022/09/28 03:41:26;;;;;;;121.97;31.08;;;8.00;99.90;;;;;;5025066;28;20113;-53
2022/09/28 03:43:53;;;;;;;118.43;30.27;;;8.00;99.90;;;;;;5080111;28;20052;-54
2022/09/28 03:46:21;;;;;;;188.45;32.45;;;8.00;99.90;;;;;;5047472;28;20055;-46
2022/09/28 03:48:50;;;;;;;102.13;27.50;;;7.90;99.90;;;;;;5093240;28;20063;-48
2022/09/28 03:51:19;;;;;;;160.20;32.67;;;7.90;99.90;;;;;;5062313;28;20070;-45
2022/09/28 03:53:45;;;;;;;131.27;29.80;;;7.90;99.90;;;;;;5079362;28;20044;-47
2022/09/28 03:56:13;;;;;;;178.82;34.45;;;7.90;99.90;;;;;;5019780;28;20056;-47
2022/09/28 03:58:40;;;;;;;130.10;30.83;;;7.90;99.90;;;;;;5062804;28;20064;-46
2022/09/28 04:01:14;;;;;;;153.60;36.58;;;7.90;99.90;;;;;;5029526;28;20148;-46
2022/09/28 04:03:41;;;;;;;88.00;30.73;;;7.90;99.90;;;;;;5050222;28;20135;-45
2022/09/28 04:06:08;;;;;;;66.20;28.27;;;7.90;99.90;;;;;;5086776;28;20057;-50
2022/09/28 04:08:34;;;;;;;163.10;34.53;;;7.90;99.90;;;;;;5067621;28;20392;-54
2022/09/28 04:11:01;;;;;;;121.53;31.15;;;7.90;99.90;;;;;;5089585;28;20047;-53
2022/09/28 04:13:29;;;;;;;142.60;35.97;;;7.90;99.90;;;;;;5052929;28;20487;-54
2022/09/28 04:15:56;;;;;;;102.10;31.67;;;7.90;99.90;;;;;;5051014;28;20048;-45
2022/09/28 04:18:24;;;;;;;80.20;29.98;;;8.00;99.90;;;;;;5050582;28;20052;-47
2022/09/28 04:21:18;;;;;;;126.85;37.03;;;8.00;99.90;;;;;;5011594;28;20048;-45
2022/09/28 04:23:58;;;;;;;117.18;33.97;;;8.00;99.90;;;;;;5069607;28;20059;-53
2022/09/28 04:26:26;;;;;;;87.40;34.20;;;8.00;99.90;;;;;;5066165;28;20133;-47
2022/09/28 04:31:49;;;;;;;87.45;30.40;;;8.10;99.90;;;;;;5092705;28;20053;-54
2022/09/28 04:34:22;;;;;;;94.25;32.70;;;8.10;99.90;;;;;;5083723;28;20110;-53
2022/09/28 04:36:50;;;;;;;133.90;35.53;;;8.00;99.90;;;;;;5084314;28;20071;-54
2022/09/28 04:39:18;;;;;;;221.52;35.00;;;8.00;99.90;;;;;;5066130;28;20052;-54
2022/09/28 04:41:55;;;;;;;127.95;32.00;;;8.00;99.90;;;;;;5045251;28;20051;-53
2022/09/28 04:44:21;;;;;;;183.80;35.83;;;8.00;99.90;;;;;;5060554;28;20131;-54
2022/09/28 04:46:49;;;;;;;146.35;29.38;;;7.90;99.90;;;;;;5048417;28;20129;-54
2022/09/28 04:49:30;;;;;;;236.45;36.88;;;7.90;99.90;;;;;;5075606;28;20466;-54
2022/09/28 04:52:16;;;;;;;195.75;31.50;;;7.80;99.90;;;;;;5080342;28;20668;-54
2022/09/28 04:54:42;;;;;;;223.07;29.65;;;7.70;99.90;;;;;;5084212;28;20047;-54
2022/09/28 04:57:08;;;;;;;274.65;36.22;;;7.60;99.90;;;;;;5065794;28;20116;-54
2022/09/28 04:59:36;;;;;;;237.68;33.63;;;7.60;99.90;;;;;;5062382;28;20533;-54
2022/09/28 05:02:03;;;;;;;186.23;29.55;;;7.60;99.90;;;;;;5063764;28;20546;-54
2022/09/28 05:04:48;;;;;;;236.88;30.90;;;7.60;99.90;;;;;;5052812;28;20142;-46
2022/09/28 05:07:34;;;;;;;252.55;33.80;;;7.50;99.90;;;;;;5047854;28;20055;-53
2022/09/28 05:10:02;;;;;;;355.48;40.92;;;7.50;99.90;;;;;;5049377;28;20051;-54
2022/09/28 05:12:31;;;;;;;132.68;26.13;;;7.50;99.90;;;;;;5061608;28;20131;-48
2022/09/28 05:14:59;;;;;;;97.78;24.65;;;7.60;99.90;;;;;;5060301;28;20040;-45
2022/09/28 05:17:26;;;;;;;110.50;27.92;;;7.60;99.90;;;;;;5064263;28;20060;-46
2022/09/28 05:20:05;;;;;;;142.13;27.02;;;7.70;99.90;;;;;;5061058;28;20053;-49
2022/09/28 05:22:32;;;;;;;223.27;30.67;;;7.70;99.90;;;;;;5049643;28;20077;-52
2022/09/28 05:24:59;;;;;;;198.50;31.45;;;7.70;99.90;;;;;;5049990;28;21573;-53
2022/09/28 05:27:27;;;;;;;168.38;30.65;;;7.70;99.90;;;;;;5051021;28;20446;-54
2022/09/28 05:30:06;;;;;;;129.15;26.17;;;7.70;99.90;;;;;;5066473;28;20138;-49
2022/09/28 05:33:11;;;;;;;194.50;30.00;;;7.70;99.90;;;;;;4999799;28;20056;-54
2022/09/28 05:35:43;;;;;;;161.05;27.95;;;7.70;99.90;;;;;;5000192;28;20405;-52
2022/09/28 05:38:09;;;;;;;212.85;32.50;;;7.70;99.90;;;;;;5040357;28;20065;-54
2022/09/28 05:40:35;;;;;;;225.02;31.27;;;7.70;99.90;;;;;;5047754;28;20052;-46
2022/09/28 05:43:01;;;;;;;219.13;30.45;;;7.60;99.90;;;;;;5025102;28;20075;-46
2022/09/28 05:45:28;;;;;;;249.00;29.95;;;7.60;99.90;;;;;;5028090;28;20127;-50
2022/09/28 05:47:55;;;;;;;197.82;28.27;;;7.50;99.90;;;;;;5043345;28;20056;-45
2022/09/28 05:50:22;;;;;;;226.05;29.73;;;7.50;99.90;;;;;;5013035;28;20055;-55
2022/09/28 05:52:59;;;;;;;185.60;29.48;;;7.70;99.90;;;;;;5048141;28;20044;-54
2022/09/28 05:55:26;;;;;;;296.25;34.58;;;7.60;99.90;;;;;;5045942;28;20100;-55
2022/09/28 05:57:52;;;;;;;203.52;28.13;;;7.50;99.90;;;;;;5084479;28;20056;-55
2022/09/28 06:00:18;;;;;;;217.48;30.25;;;7.50;99.90;;;;;;5032476;28;20810;-55
2022/09/28 06:02:59;;;;;;;206.27;27.35;;;7.40;99.90;;;;;;5046493;28;20064;-54
2022/09/28 06:05:27;;;;;;;249.48;29.92;;;7.40;99.90;;;;;;5047893;28;20469;-52
2022/09/28 06:07:58;;;;;;;160.95;24.83;;;7.40;99.90;;;;;;5060760;28;20059;-46
2022/09/28 06:10:25;;;;;;;165.23;27.85;;;7.40;99.90;;;;;;5063321;28;20109;-50
2022/09/28 06:12:57;;;;;;;149.25;27.27;;;7.40;99.90;;;;;;5081500;28;20072;-54
2022/09/28 06:15:26;;;;;;;110.75;23.30;;;7.50;99.90;;;;;;5057223;28;20044;-51
2022/09/28 06:18:03;;;;;;;137.75;24.05;;;7.50;99.90;;;;;;5039777;28;20576;-50
2022/09/28 06:20:53;;;;;;;163.48;29.17;;;7.60;99.90;;;;;;5072277;28;20063;-53
2022/09/28 06:23:29;;;;;;;98.60;23.67;;;7.50;99.90;;;;;;5054854;28;20059;-54
2022/09/28 06:25:58;;;;;;;128.27;23.75;;;7.70;99.90;;;;;;5029462;28;20502;-57
2022/09/28 06:28:25;;;;;;;100.32;22.13;;;7.70;99.90;;;;;;5049480;28;20050;-55
2022/09/28 06:30:52;;;;;;;156.05;25.90;;;7.80;99.90;;;;;;5055405;28;20055;-46
2022/09/28 06:33:18;;;;;;;133.10;26.35;;;7.80;99.90;;;;;;5044722;28;20169;-53
2022/09/28 06:35:45;;;;;;;145.40;28.33;;;7.80;99.90;;;;;;5061506;28;20490;-47
2022/09/28 06:38:11;;;;;;;111.03;24.83;;;7.80;99.90;;;;;;5062169;28;20749;-45
2022/09/28 06:40:38;;;;;;;208.82;27.88;;;7.90;99.90;;;;;;5062781;28;20642;-45
2022/09/28 06:43:08;;;;;;;196.88;31.40;;;7.80;99.90;;;;;;5062749;28;20052;-45
2022/09/28 06:46:08;;;;;;;108.72;25.63;;;7.90;99.90;;;;;;5059934;28;20467;-45
2022/09/28 06:48:49;;;;;;;72.25;24.27;;;7.90;99.90;;;;;;5070276;28;20150;-55
2022/09/28 06:51:39;;;;;;;75.30;22.50;;;8.00;99.90;;;;;;5054078;28;20101;-48
2022/09/28 06:54:18;;;;;;;73.93;24.35;;;8.10;99.90;;;;;;5061385;28;20048;-54
2022/09/28 06:57:02;;;;;;;70.05;23.73;;;8.10;99.90;;;;;;5076019;28;20106;-54
2022/09/28 06:59:30;;;;;;;75.28;24.92;;;8.20;99.90;;;;;;5033194;28;20506;-47
2022/09/28 07:01:58;;;;;;;72.40;24.85;;;8.20;99.90;;;;;;5063504;28;20123;-54
2022/09/28 07:04:45;;;;;;;77.80;23.23;;;8.20;99.90;;;;;;5050936;28;20065;-50
2022/09/28 07:07:13;;;;;;;51.10;23.27;;;8.20;99.90;;;;;;5068379;28;21008;-54
2022/09/28 07:09:55;;;;;;;51.65;23.27;;;8.20;99.90;;;;;;5045170;28;20793;-53
2022/09/28 07:12:41;;;;;;;97.22;25.67;;;8.30;99.90;;;;;;5031441;28;20082;-54
2022/09/28 07:15:23;;;;;;;86.35;26.88;;;8.30;99.90;;;;;;5045539;28;20052;-54
2022/09/28 07:17:56;;;;;;;78.07;24.20;;;8.30;99.90;;;;;;5059552;28;20051;-54
2022/09/28 07:20:23;;;;;;;48.50;23.40;;;8.30;99.90;;;;;;5041383;28;20043;-54
2022/09/28 07:22:58;;;;;;;71.00;24.08;;;8.20;99.90;;;;;;5032839;28;20048;-54
2022/09/28 07:25:28;;;;;;;91.20;27.15;;;8.30;99.90;;;;;;5037966;28;20105;-54
2022/09/28 07:28:08;;;;;;;66.65;24.23;;;8.40;99.90;;;;;;5059674;28;20172;-54
2022/09/28 07:30:57;;;;;;;46.88;20.52;;;8.30;99.90;;;;;;5058559;28;20055;-48
2022/09/28 07:33:50;;;;;;;40.17;19.02;;;8.30;99.90;;;;;;5028427;28;20146;-53
2022/09/28 07:36:23;;;;;;;28.83;18.15;;;8.40;99.90;;;;;;5044567;28;20503;-48
2022/09/28 07:38:51;;;;;;;25.40;17.27;;;8.50;99.90;;;;;;5059339;28;20128;-54
2022/09/28 07:41:25;;;;;;;25.88;15.93;;;8.60;99.90;;;;;;5043101;28;20052;-63
2022/09/28 07:43:52;;;;;;;27.10;16.88;;;8.70;99.90;;;;;;5073388;28;20052;-55
2022/09/28 07:46:20;;;;;;;25.38;16.98;;;8.80;99.90;;;;;;5059061;28;20140;-47
2022/09/28 07:49:00;;;;;;;32.58;17.85;;;8.80;99.90;;;;;;5055422;28;20048;-46
2022/09/28 07:51:52;;;;;;;21.05;15.40;;;9.00;99.90;;;;;;5070965;28;20060;-39
2022/09/28 07:54:27;;;;;;;27.80;17.30;;;9.20;99.90;;;;;;5062750;28;20051;-43
2022/09/28 07:57:15;;;;;;;17.98;15.10;;;9.20;99.90;;;;;;5046600;28;20048;-42
2022/09/28 07:59:59;;;;;;;25.40;14.18;;;9.30;99.90;;;;;;5044606;28;20617;-45
2022/09/28 08:02:51;;;;;;;28.77;17.25;;;9.30;99.90;;;;;;5042864;28;20706;-52
2022/09/28 08:05:22;;;;;;;17.20;14.47;;;9.20;99.90;;;;;;5043339;28;20597;-57
2022/09/28 08:07:48;;;;;;;17.77;15.25;;;9.20;99.90;;;;;;5043148;28;20056;-51
2022/09/28 08:10:16;;;;;;;18.23;14.10;;;9.20;99.90;;;;;;5043056;28;20047;-47
2022/09/28 08:13:02;;;;;;;18.23;14.50;;;9.20;99.90;;;;;;5043242;28;20044;-47
2022/09/28 08:15:49;;;;;;;16.73;14.75;;;9.20;99.90;;;;;;5053609;28;20050;-47
2022/09/28 08:18:23;;;;;;;15.50;13.30;;;9.20;99.90;;;;;;5071234;28;20043;-49
2022/09/28 08:23:37;;;;;;;17.25;12.77;;;9.20;99.90;;;;;;5057004;28;20071;-47
2022/09/28 08:26:04;;;;;;;15.20;12.95;;;9.30;99.90;;;;;;5043562;28;20398;-46
2022/09/28 08:28:31;;;;;;;16.15;13.20;;;9.30;99.90;;;;;;5058473;28;20431;-46
2022/09/28 08:31:02;;;;;;;16.80;14.35;;;9.30;99.90;;;;;;5058522;28;20072;-47
2022/09/28 08:33:31;;;;;;;16.08;13.95;;;9.30;99.90;;;;;;5026586;28;20047;-44
2022/09/28 08:36:15;;;;;;;18.20;14.75;;;9.50;99.90;;;;;;5078430;28;20198;-46
2022/09/28 08:39:00;;;;;;;19.52;14.68;;;9.80;99.90;;;;;;5074758;28;20047;-46
2022/09/28 08:42:01;;;;;;;19.20;14.50;;;9.90;99.90;;;;;;5057078;28;20071;-48
2022/09/28 08:44:47;;;;;;;20.80;18.40;;;10.00;99.90;;;;;;5053408;28;20055;-50
2022/09/28 08:51:09;;;;;;;19.92;15.20;;;10.60;99.90;;;;;;5062198;28;20119;-47
2022/09/28 08:53:46;;;;;;;17.70;15.07;;;11.30;99.90;;;;;;5080678;28;20048;-48
2022/09/28 08:56:29;;;;;;;19.35;15.48;;;11.50;99.90;;;;;;5047674;28;20052;-47
2022/09/28 08:59:01;;;;;;;18.50;15.90;;;11.90;99.90;;;;;;5063052;28;20118;-46
2022/09/28 09:01:33;;;;;;;18.85;16.88;;;12.10;99.90;;;;;;5031309;28;20085;-49
2022/09/28 09:04:03;;;;;;;17.45;14.48;;;12.50;99.90;;;;;;5061699;28;20154;-51
2022/09/28 09:06:58;;;;;;;16.17;14.50;;;12.60;99.90;;;;;;5076912;28;20051;-48
2022/09/28 09:09:53;;;;;;;16.98;14.20;;;13.00;99.90;;;;;;5081979;28;20056;-48
2022/09/28 09:12:37;;;;;;;15.30;13.70;;;13.50;99.90;;;;;;5061957;28;20166;-45
2022/09/28 09:15:22;;;;;;;14.95;12.63;;;13.80;99.90;;;;;;5060216;28;20051;-49
2022/09/28 09:18:07;;;;;;;14.70;13.20;;;13.70;99.90;;;;;;5060463;28;20050;-47
2022/09/28 09:20:50;;;;;;;16.08;13.60;;;13.60;99.90;;;;;;5042565;28;20155;-47
2022/09/28 09:24:03;;;;;;;16.27;13.27;;;13.90;99.90;;;;;;5042610;28;20671;-44
2022/09/28 09:26:37;;;;;;;14.27;12.23;;;14.60;99.90;;;;;;5077981;28;20059;-45
2022/09/28 09:29:45;;;;;;;14.45;12.95;;;14.50;99.90;;;;;;5044599;28;20498;-46
2022/09/28 09:32:46;;;;;;;15.35;13.20;;;14.80;99.90;;;;;;5045971;28;20040;-48
2022/09/28 09:35:18;;;;;;;12.95;11.65;;;15.30;99.90;;;;;;5029312;28;20124;-49
2022/09/28 09:38:39;;;;;;;14.57;13.07;;;15.80;99.90;;;;;;5055414;28;20545;-45
2022/09/28 09:41:39;;;;;;;13.50;12.10;;;16.50;99.90;;;;;;5043565;28;20048;-47
2022/09/28 09:44:53;;;;;;;14.18;11.55;;;17.10;99.90;;;;;;5077501;28;20076;-49
2022/09/28 09:47:43;;;;;;;13.48;12.10;;;17.00;99.90;;;;;;5061519;28;20461;-46
2022/09/28 09:50:34;;;;;;;11.98;10.77;;;16.80;99.90;;;;;;5044701;28;20048;-46
2022/09/28 09:53:15;;;;;;;11.88;10.68;;;17.50;99.90;;;;;;5026216;28;20559;-49
2022/09/28 09:55:49;;;;;;;13.90;12.45;;;18.80;99.90;;;;;;5078450;28;20048;-47
2022/09/28 09:58:36;;;;;;;13.45;12.15;;;18.10;99.90;;;;;;5060281;28;20521;-42
2022/09/28 10:01:19;;;;;;;16.08;12.07;;;18.20;99.90;;;;;;5086543;27;20052;-44
2022/09/28 10:04:18;;;;;;;12.00;10.77;;;18.10;99.90;;;;;;5056166;28;20056;-42
2022/09/28 10:06:46;;;;;;;12.82;11.52;;;17.90;99.90;;;;;;5060521;28;20059;-42
2022/09/28 10:09:21;;;;;;;11.93;10.77;;;17.40;99.90;;;;;;5061500;28;20105;-43
2022/09/28 10:11:49;;;;;;;9.95;8.25;;;17.30;99.90;;;;;;5057303;28;20059;-50
2022/09/28 10:14:20;;;;;;;10.10;8.23;;;16.70;99.90;;;;;;5059529;28;20047;-46
2022/09/28 10:16:54;;;;;;;9.65;8.48;;;16.40;99.90;;;;;;5041040;28;20768;-49
2022/09/28 10:19:42;;;;;;;9.00;8.10;;;16.00;99.90;;;;;;5018141;28;20048;-49
2022/09/28 10:22:30;;;;;;;7.22;6.45;;;15.90;99.90;;;;;;5058661;28;20055;-50
2022/09/28 10:24:58;;;;;;;6.32;5.18;;;16.40;99.90;;;;;;5042304;28;20102;-49
2022/09/28 10:27:30;;;;;;;6.68;5.90;;;17.40;99.90;;;;;;5030535;28;20059;-46
2022/09/28 10:30:08;;;;;;;8.10;5.40;;;18.10;99.90;;;;;;5039966;28;20040;-47
2022/09/28 10:32:46;;;;;;;6.38;5.35;;;18.90;99.90;;;;;;5060803;28;20044;-45
2022/09/28 10:35:18;;;;;;;7.28;5.30;;;19.70;99.90;;;;;;5044084;28;20043;-50
2022/09/28 10:38:17;;;;;;;6.75;5.00;;;20.10;99.90;;;;;;5044965;28;20083;-47
2022/09/28 10:41:00;;;;;;;4.47;3.42;;;20.70;99.90;;;;;;5041648;28;20450;-51
2022/09/28 10:44:04;;;;;;;;;;;21.50;97.60;;;;;;5028812;28;20169;-46
2022/09/28 10:46:37;;;;;;;5.38;4.10;;;21.90;96.90;;;;;;5030355;28;20023;-43
2022/09/28 10:49:20;;;;;;;4.90;3.33;;;20.40;97.70;;;;;;5042583;28;20044;-47
2022/09/28 10:51:57;;;;;;;5.45;3.70;;;19.80;99.90;;;;;;5027751;28;20047;-47
2022/09/28 10:54:29;;;;;;;5.38;3.60;;;19.10;99.90;;;;;;5060726;28;20064;-46
2022/09/28 10:56:58;;;;;;;3.80;3.10;;;18.60;99.90;;;;;;5059280;28;20083;-44
2022/09/28 10:59:33;;;;;;;4.20;3.25;;;17.70;99.90;;;;;;5058030;28;20067;-44
2022/09/28 11:02:40;;;;;;;3.45;2.22;;;17.20;99.90;;;;;;5063568;28;20051;-44
2022/09/28 11:05:26;;;;;;;3.58;1.55;;;16.80;99.90;;;;;;5076347;28;20052;-46
2022/09/28 11:07:56;;;;;;;;;;;16.40;99.90;;;;;;5060522;28;20091;-47
2022/09/28 11:10:31;;;;;;;4.68;2.35;;;16.00;99.90;;;;;;5043726;28;19955;-43
2022/09/28 11:13:10;;;;;;;4.10;1.90;;;15.80;99.90;;;;;;5076890;28;20071;-49
2022/09/28 11:15:42;;;;;;;3.28;2.10;;;15.70;99.90;;;;;;5056418;28;20052;-45
2022/09/28 11:18:37;;;;;;;2.70;1.80;;;15.80;99.90;;;;;;5060549;28;20098;-42
2022/09/28 11:21:13;;;;;;;5.40;2.15;;;15.70;99.90;;;;;;5056827;28;20087;-42
2022/09/28 11:24:00;;;;;;;2.88;1.40;;;16.40;99.90;;;;;;5043865;28;20462;-46
2022/09/28 11:26:39;;;;;;;3.22;1.88;;;16.90;99.90;;;;;;5040139;28;20530;-49
2022/09/28 11:29:36;;;;;;;6.18;1.90;;;16.90;99.90;;;;;;5089344;28;20072;-46
2022/09/28 11:32:30;;;;;;;5.65;2.20;;;16.70;99.90;;;;;;5052842;28;20040;-51
2022/09/28 11:35:27;;;;;;;5.28;1.90;;;16.60;99.90;;;;;;5056228;28;20040;-42
2022/09/28 11:38:07;;;;;;;2.92;1.80;;;16.40;99.90;;;;;;5057931;28;20051;-42
2022/09/28 11:41:19;;;;;;;3.45;1.85;;;17.40;99.90;;;;;;5072151;28;20510;-46
2022/09/28 11:44:16;;;;;;;2.92;1.60;;;19.20;99.90;;;;;;5016489;28;20109;-44
2022/09/28 11:46:55;;;;;;;3.53;1.73;;;19.20;99.90;;;;;;5059504;28;20177;-44
2022/09/28 11:49:44;;;;;;;3.85;1.42;;;18.40;99.90;;;;;;5057692;28;20469;-45
2022/09/28 11:52:27;;;;;;;2.15;1.48;;;18.30;99.90;;;;;;5042977;28;20450;-46
2022/09/28 11:55:00;;;;;;;4.47;1.90;;;18.10;99.90;;;;;;5039630;28;20098;-46
2022/09/28 11:57:34;;;;;;;2.25;1.55;;;17.90;99.90;;;;;;5058251;28;20142;-50
2022/09/28 12:00:19;;;;;;;2.45;1.52;;;17.40;99.90;;;;;;5071993;28;20056;-50
2022/09/28 12:03:00;;;;;;;3.05;1.30;;;17.00;99.90;;;;;;5036067;28;20048;-43
2022/09/28 12:05:37;;;;;;;3.97;1.40;;;16.70;99.90;;;;;;5021259;28;20462;-42
2022/09/28 12:08:12;;;;;;;3.00;1.08;;;16.50;99.90;;;;;;5052312;28;20430;-43
2022/09/28 12:10:57;;;;;;;3.25;1.38;;;16.50;99.90;;;;;;5054473;28;20787;-48
2022/09/28 12:13:50;;;;;;;2.83;1.23;;;16.40;99.90;;;;;;5054917;28;20056;-47
2022/09/28 12:16:16;;;;;;;2.35;1.27;;;16.70;99.90;;;;;;5048948;28;20128;-48
2022/09/28 12:18:57;;;;;;;1.58;1.00;;;16.90;99.90;;;;;;5049493;28;20056;-42
2022/09/28 12:21:26;;;;;;;4.63;1.33;;;17.20;99.90;;;;;;5062062;28;20090;-42
2022/09/28 12:23:55;;;;;;;2.65;1.10;;;17.20;99.90;;;;;;5058379;28;20712;-46
2022/09/28 12:26:37;;;;;;;5.22;1.17;;;17.80;99.90;;;;;;5060313;28;20114;-44
2022/09/28 12:29:32;;;;;;;2.15;1.00;;;18.60;99.90;;;;;;5057771;28;20138;-44
2022/09/28 12:32:10;;;;;;;1.73;0.75;;;20.20;99.90;;;;;;5050233;28;20099;-43
2022/09/28 12:34:39;;;;;;;2.92;0.93;;;21.30;97.30;;;;;;5051841;28;20491;-45
2022/09/28 12:37:24;;;;;;;3.20;2.17;;;21.70;96.90;;;;;;5054291;28;20056;-46
2022/09/28 12:40:18;;;;;;;1.38;0.80;;;22.10;94.30;;;;;;5055907;28;20049;-43
2022/09/28 12:43:05;;;;;;;1.05;0.65;;;22.70;92.40;;;;;;5060475;28;20195;-44
2022/09/28 12:46:08;;;;;;;2.90;0.70;;;22.70;85.50;;;;;;5058673;28;20048;-46
2022/09/28 12:48:53;;;;;;;1.88;0.77;;;23.30;83.20;;;;;;5055315;28;20052;-44
2022/09/28 12:51:28;;;;;;;1.02;0.50;;;23.70;76.40;;;;;;5055538;28;20056;-46
2022/09/28 12:54:08;;;;;;;2.60;0.50;;;24.00;69.70;;;;;;5053853;28;20059;-46
2022/09/28 12:57:14;;;;;;;1.67;0.50;;;23.70;71.70;;;;;;5035566;28;20509;-45
2022/09/28 12:59:58;;;;;;;1.88;0.50;;;24.40;67.30;;;;;;5054816;28;20056;-47
2022/09/28 13:02:43;;;;;;;3.05;0.70;;;24.40;69.20;;;;;;5022437;28;20113;-47
2022/09/28 13:05:46;;;;;;;1.42;0.43;;;24.00;66.30;;;;;;5060978;28;20046;-47
2022/09/28 13:08:54;;;;;;;1.15;0.47;;;24.00;64.00;;;;;;5055104;28;20048;-48
2022/09/28 13:11:31;;;;;;;2.78;0.75;;;23.30;67.00;;;;;;5076383;28;20558;-49
2022/09/28 13:14:32;;;;;;;2.35;0.38;;;22.40;70.80;;;;;;5074651;28;20145;-42
2022/09/28 13:17:17;;;;;;;0.80;0.30;;;22.60;70.80;;;;;;5076910;28;20130;-49
2022/09/28 13:20:20;;;;;;;1.50;0.40;;;22.60;72.80;;;;;;5060452;28;20056;-48
2022/09/28 13:22:56;;;;;;;1.20;0.50;;;22.80;70.80;;;;;;5075901;28;20048;-50
2022/09/28 13:25:26;;;;;;;2.65;1.05;;;23.10;70.10;;;;;;5058617;28;20086;-47
2022/09/28 13:28:01;;;;;;;0.98;0.60;;;23.50;69.20;;;;;;5027997;28;20055;-47
2022/09/28 13:30:29;;;;;;;1.05;0.50;;;24.10;67.10;;;;;;5078406;28;20105;-47
2022/09/28 13:32:57;;;;;;;1.67;0.47;;;24.60;69.80;;;;;;5077326;28;20055;-46
2022/09/28 13:35:24;;;;;;;1.38;0.50;;;25.10;67.20;;;;;;5056416;28;20413;-44
2022/09/28 13:38:15;;;;;;;1.88;0.50;;;24.50;66.90;;;;;;5053794;28;20052;-44
2022/09/28 13:41:03;;;;;;;1.20;0.30;;;24.20;62.80;;;;;;5060397;28;20055;-46